Terminal Aerodrome Forecast
Issued by NWS Denver/Boulder, CO

Home | Current Version | Previous Version | Text Only | Print | Product List | Glossary On
Versions: 1 2 3 4 5 6 7 8 9 10 11 12 13 14 15 16 17 18 19 20 21 22 23 24 25 26 27 28 29 30 31 32 33 34 35 36 37 38 39 40 41 42 43 44 45 46 47 48 49 50
000
FTUS45 KBOU 250538
TAFDEN
TAF
KDEN 250538Z 2506/2612 22009KT P6SM FEW110 SCT200
     FM251400 15006KT P6SM SCT200
     FM251900 15012KT P6SM FEW080 BKN140
     FM252100 34015KT P6SM VCTS SCT080CB BKN140
      TEMPO 2521/2601 VRB20G30KT -TSRA BKN080CB
     FM260200 32012KT P6SM SCT060 BKN120
      TEMPO 2602/2606 -SHRA BKN060
     FM260900 03008KT 1/2SM FG SCT002 OVC006=

USA.gov is the U.S. government's official web portal to all federal, state and local government web resources and services.